sensor_id;sensor_type;location;lat;lon;timestamp;P1;durP1;ratioP1;P2;durP2;ratioP2
63690;SDS011;49837;57.280;27.070;2024-01-15T00:00:06;31.4;;;17.8;;
63690;SDS011;49837;57.280;27.070;2024-01-15T00:01:06;27.1;;;14.1;;
63690;SDS011;49837;57.280;27.070;2024-01-15T00:02:06;23.4;;;13.7;;
63690;SDS011;49837;57.280;27.070;2024-01-15T00:03:07;23.4;;;13.7;;
63690;SDS011;49837;57.280;27.070;2024-01-15T00:04:07;25.8;;;13.7;;
63690;SDS011;49837;57.280;27.070;2024-01-15T00:05:08;25.6;;;14.2;;
63690;SDS011;49837;57.280;27.070;2024-01-15T00:06:08;26.1;;;14.2;;
63690;SDS011;49837;57.280;27.070;2024-01-15T00:07:08;25.2;;;13.3;;
63690;SDS011;49837;57.280;27.070;2024-01-15T00:08:09;24.8;;;12.9;;
63690;SDS011;49837;57.280;27.070;2024-01-15T00:09:09;21.4;;;12.6;;
63690;SDS011;49837;57.280;27.070;2024-01-15T00:10:09;22.8;;;14.2;;
63690;SDS011;49837;57.280;27.070;2024-01-15T00:11:10;23.9;;;13.7;;
63690;SDS011;49837;57.280;27.070;2024-01-15T00:12:10;31.6;;;15.8;;
63690;SDS011;49837;57.280;27.070;2024-01-15T00:13:11;25.1;;;14.0;;
63690;SDS011;49837;57.280;27.070;2024-01-15T00:14:11;25.8;;;14.6;;
63690;SDS011;49837;57.280;27.070;2024-01-15T00:15:11;25.2;;;13.6;;
63690;SDS011;49837;57.280;27.070;2024-01-15T00:16:12;24.5;;;13.4;;
63690;SDS011;49837;57.280;27.070;2024-01-15T00:17:12;27.3;;;14.2;;
63690;SDS011;49837;57.280;27.070;2024-01-15T00:18:12;31.2;;;15.6;;
63690;SDS011;49837;57.280;27.070;2024-01-15T00:19:13;44.8;;;21.2;;
63690;SDS011;49837;57.280;27.070;2024-01-15T00:20:13;37.3;;;18.6;;
63690;SDS011;49837;57.280;27.070;2024-01-15T00:21:14;35.0;;;18.1;;
63690;SDS011;49837;57.280;27.070;2024-01-15T00:22:14;27.4;;;15.0;;
63690;SDS011;49837;57.280;27.070;2024-01-15T00:23:14;25.2;;;14.0;;
63690;SDS011;49837;57.280;27.070;2024-01-15T00:24:15;31.9;;;16.2;;
63690;SDS011;49837;57.280;27.070;2024-01-15T00:25:15;34.9;;;17.3;;
63690;SDS011;49837;57.280;27.070;2024-01-15T00:26:15;26.2;;;14.1;;
63690;SDS011;49837;57.280;27.070;2024-01-15T00:27:16;25.0;;;13.3;;
63690;SDS011;49837;57.280;27.070;2024-01-15T00:28:16;22.2;;;13.2;;
63690;SDS011;49837;57.280;27.070;2024-01-15T00:29:17;22.2;;;13.2;;
63690;SDS011;49837;57.280;27.070;2024-01-15T00:30:17;23.4;;;13.3;;
63690;SDS011;49837;57.280;27.070;2024-01-15T00:31:17;24.0;;;13.2;;
63690;SDS011;49837;57.280;27.070;2024-01-15T00:32:18;24.0;;;13.0;;
63690;SDS011;49837;57.280;27.070;2024-01-15T00:33:18;23.6;;;12.8;;
63690;SDS011;49837;57.280;27.070;2024-01-15T00:34:18;23.2;;;12.9;;
63690;SDS011;49837;57.280;27.070;2024-01-15T00:35:19;23.9;;;13.7;;
63690;SDS011;49837;57.280;27.070;2024-01-15T00:36:20;24.1;;;12.8;;
63690;SDS011;49837;57.280;27.070;2024-01-15T00:37:20;24.1;;;13.2;;
63690;SDS011;49837;57.280;27.070;2024-01-15T00:38:20;25.2;;;13.6;;
63690;SDS011;49837;57.280;27.070;2024-01-15T00:39:20;25.8;;;13.1;;
63690;SDS011;49837;57.280;27.070;2024-01-15T00:40:21;22.1;;;12.8;;
63690;SDS011;49837;57.280;27.070;2024-01-15T00:41:21;23.6;;;13.7;;
63690;SDS011;49837;57.280;27.070;2024-01-15T00:42:22;23.6;;;13.6;;
63690;SDS011;49837;57.280;27.070;2024-01-15T00:43:22;23.9;;;13.7;;
63690;SDS011;49837;57.280;27.070;2024-01-15T00:44:22;24.7;;;13.4;;
63690;SDS011;49837;57.280;27.070;2024-01-15T00:45:23;25.0;;;13.7;;
63690;SDS011;49837;57.280;27.070;2024-01-15T00:46:23;25.5;;;13.9;;
63690;SDS011;49837;57.280;27.070;2024-01-15T00:47:23;24.6;;;13.5;;
63690;SDS011;49837;57.280;27.070;2024-01-15T00:48:24;24.6;;;13.5;;
63690;SDS011;49837;57.280;27.070;2024-01-15T00:49:24;22.5;;;12.9;;
63690;SDS011;49837;57.280;27.070;2024-01-15T00:50:25;24.5;;;13.5;;
63690;SDS011;49837;57.280;27.070;2024-01-15T00:51:25;23.8;;;13.3;;
63690;SDS011;49837;57.280;27.070;2024-01-15T00:52:25;22.5;;;12.3;;
63690;SDS011;49837;57.280;27.070;2024-01-15T00:53:26;24.0;;;12.6;;
63690;SDS011;49837;57.280;27.070;2024-01-15T00:54:26;23.2;;;13.3;;
63690;SDS011;49837;57.280;27.070;2024-01-15T00:55:28;21.5;;;13.1;;
63690;SDS011;49837;57.280;27.070;2024-01-15T00:56:27;23.4;;;13.7;;
63690;SDS011;49837;57.280;27.070;2024-01-15T00:57:27;23.1;;;13.2;;
63690;SDS011;49837;57.280;27.070;2024-01-15T00:58:28;24.0;;;13.7;;
63690;SDS011;49837;57.280;27.070;2024-01-15T00:59:28;23.0;;;13.0;;
63690;SDS011;49837;57.280;27.070;2024-01-15T01:00:28;25.4;;;14.0;;
63690;SDS011;49837;57.280;27.070;2024-01-15T01:01:29;23.0;;;13.9;;
63690;SDS011;49837;57.280;27.070;2024-01-15T01:02:29;23.2;;;13.7;;
63690;SDS011;49837;57.280;27.070;2024-01-15T01:03:30;26.2;;;13.7;;
63690;SDS011;49837;57.280;27.070;2024-01-15T01:04:30;24.1;;;13.6;;
63690;SDS011;49837;57.280;27.070;2024-01-15T01:05:30;23.0;;;13.9;;
63690;SDS011;49837;57.280;27.070;2024-01-15T01:06:31;22.5;;;13.3;;
63690;SDS011;49837;57.280;27.070;2024-01-15T01:07:31;24.6;;;13.5;;
63690;SDS011;49837;57.280;27.070;2024-01-15T01:08:31;23.9;;;13.8;;
63690;SDS011;49837;57.280;27.070;2024-01-15T01:09:32;22.8;;;13.2;;
63690;SDS011;49837;57.280;27.070;2024-01-15T01:10:32;25.0;;;13.3;;
63690;SDS011;49837;57.280;27.070;2024-01-15T01:11:33;25.1;;;13.3;;
63690;SDS011;49837;57.280;27.070;2024-01-15T01:12:33;25.8;;;13.5;;
63690;SDS011;49837;57.280;27.070;2024-01-15T01:13:33;24.4;;;13.6;;
63690;SDS011;49837;57.280;27.070;2024-01-15T01:14:34;23.5;;;13.6;;
63690;SDS011;49837;57.280;27.070;2024-01-15T01:15:34;25.0;;;13.2;;
63690;SDS011;49837;57.280;27.070;2024-01-15T01:16:35;32.0;;;17.8;;
63690;SDS011;49837;57.280;27.070;2024-01-15T01:17:35;32.8;;;17.6;;
63690;SDS011;49837;57.280;27.070;2024-01-15T01:18:35;25.0;;;14.9;;
63690;SDS011;49837;57.280;27.070;2024-01-15T01:19:36;25.5;;;15.2;;
63690;SDS011;49837;57.280;27.070;2024-01-15T01:20:36;25.0;;;13.7;;
63690;SDS011;49837;57.280;27.070;2024-01-15T01:21:36;26.1;;;14.1;;
63690;SDS011;49837;57.280;27.070;2024-01-15T01:22:37;23.1;;;13.2;;
63690;SDS011;49837;57.280;27.070;2024-01-15T01:23:37;27.1;;;14.0;;
63690;SDS011;49837;57.280;27.070;2024-01-15T01:24:38;26.5;;;13.8;;
63690;SDS011;49837;57.280;27.070;2024-01-15T01:25:38;29.8;;;16.5;;
63690;SDS011;49837;57.280;27.070;2024-01-15T01:26:38;28.6;;;15.9;;
63690;SDS011;49837;57.280;27.070;2024-01-15T01:27:39;25.2;;;14.8;;
63690;SDS011;49837;57.280;27.070;2024-01-15T01:28:39;29.3;;;16.0;;
63690;SDS011;49837;57.280;27.070;2024-01-15T01:29:39;27.4;;;15.4;;
63690;SDS011;49837;57.280;27.070;2024-01-15T01:30:41;24.7;;;15.1;;
63690;SDS011;49837;57.280;27.070;2024-01-15T01:31:42;25.8;;;14.8;;
63690;SDS011;49837;57.280;27.070;2024-01-15T01:32:42;26.1;;;14.9;;
63690;SDS011;49837;57.280;27.070;2024-01-15T01:33:42;33.8;;;18.1;;
63690;SDS011;49837;57.280;27.070;2024-01-15T01:34:43;31.8;;;17.4;;
63690;SDS011;49837;57.280;27.070;2024-01-15T01:35:43;26.5;;;15.5;;
63690;SDS011;49837;57.280;27.070;2024-01-15T01:36:44;31.8;;;17.3;;
63690;SDS011;49837;57.280;27.070;2024-01-15T01:37:44;28.6;;;16.0;;
63690;SDS011;49837;57.280;27.070;2024-01-15T01:38:44;30.3;;;16.3;;
63690;SDS011;49837;57.280;27.070;2024-01-15T01:39:45;27.3;;;15.2;;
63690;SDS011;49837;57.280;27.070;2024-01-15T01:40:45;23.6;;;13.5;;
63690;SDS011;49837;57.280;27.070;2024-01-15T01:41:46;27.3;;;14.9;;
63690;SDS011;49837;57.280;27.070;2024-01-15T01:42:47;24.0;;;14.0;;
63690;SDS011;49837;57.280;27.070;2024-01-15T01:43:46;25.8;;;14.6;;
63690;SDS011;49837;57.280;27.070;2024-01-15T01:44:47;24.1;;;14.2;;
63690;SDS011;49837;57.280;27.070;2024-01-15T01:45:47;31.6;;;16.7;;
63690;SDS011;49837;57.280;27.070;2024-01-15T01:46:47;36.3;;;19.9;;
63690;SDS011;49837;57.280;27.070;2024-01-15T01:47:48;27.4;;;15.3;;
63690;SDS011;49837;57.280;27.070;2024-01-15T01:48:48;27.8;;;15.0;;
63690;SDS011;49837;57.280;27.070;2024-01-15T01:49:49;25.0;;;14.3;;
63690;SDS011;49837;57.280;27.070;2024-01-15T01:50:49;25.8;;;14.3;;
63690;SDS011;49837;57.280;27.070;2024-01-15T01:51:49;26.6;;;14.5;;
63690;SDS011;49837;57.280;27.070;2024-01-15T01:52:50;24.7;;;14.1;;
63690;SDS011;49837;57.280;27.070;2024-01-15T01:53:50;27.3;;;14.4;;
63690;SDS011;49837;57.280;27.070;2024-01-15T01:54:51;27.0;;;14.0;;
63690;SDS011;49837;57.280;27.070;2024-01-15T01:55:51;28.8;;;15.4;;
63690;SDS011;49837;57.280;27.070;2024-01-15T01:56:51;27.2;;;14.8;;
63690;SDS011;49837;57.280;27.070;2024-01-15T01:57:52;26.7;;;14.1;;
63690;SDS011;49837;57.280;27.070;2024-01-15T01:58:52;26.3;;;14.2;;
63690;SDS011;49837;57.280;27.070;2024-01-15T01:59:52;25.8;;;14.2;;
63690;SDS011;49837;57.280;27.070;2024-01-15T02:00:53;24.7;;;14.6;;
63690;SDS011;49837;57.280;27.070;2024-01-15T02:01:56;26.6;;;14.4;;
63690;SDS011;49837;57.280;27.070;2024-01-15T02:02:54;27.0;;;14.7;;
63690;SDS011;49837;57.280;27.070;2024-01-15T02:03:54;28.9;;;14.3;;
63690;SDS011;49837;57.280;27.070;2024-01-15T02:04:55;27.9;;;14.2;;
63690;SDS011;49837;57.280;27.070;2024-01-15T02:05:55;25.3;;;15.2;;
63690;SDS011;49837;57.280;27.070;2024-01-15T02:06:55;26.1;;;15.1;;
63690;SDS011;49837;57.280;27.070;2024-01-15T02:07:56;27.5;;;15.3;;
63690;SDS011;49837;57.280;27.070;2024-01-15T02:08:56;25.2;;;14.8;;
63690;SDS011;49837;57.280;27.070;2024-01-15T02:09:56;26.5;;;14.8;;
63690;SDS011;49837;57.280;27.070;2024-01-15T02:10:57;25.2;;;14.4;;
63690;SDS011;49837;57.280;27.070;2024-01-15T02:11:57;25.7;;;14.3;;
63690;SDS011;49837;57.280;27.070;2024-01-15T02:12:58;35.9;;;19.0;;
63690;SDS011;49837;57.280;27.070;2024-01-15T02:13:58;38.1;;;18.3;;
63690;SDS011;49837;57.280;27.070;2024-01-15T02:14:58;31.6;;;16.8;;
63690;SDS011;49837;57.280;27.070;2024-01-15T02:15:59;30.6;;;16.9;;
63690;SDS011;49837;57.280;27.070;2024-01-15T02:16:59;29.3;;;15.5;;
63690;SDS011;49837;57.280;27.070;2024-01-15T02:18:03;32.4;;;17.6;;
63690;SDS011;49837;57.280;27.070;2024-01-15T02:19:02;27.7;;;16.0;;
63690;SDS011;49837;57.280;27.070;2024-01-15T02:20:03;29.9;;;16.7;;
63690;SDS011;49837;57.280;27.070;2024-01-15T02:21:03;28.2;;;15.2;;
63690;SDS011;49837;57.280;27.070;2024-01-15T02:22:03;25.6;;;14.7;;
63690;SDS011;49837;57.280;27.070;2024-01-15T02:23:13;25.1;;;13.8;;
63690;SDS011;49837;57.280;27.070;2024-01-15T02:24:06;24.3;;;13.6;;
63690;SDS011;49837;57.280;27.070;2024-01-15T02:25:07;26.3;;;14.4;;
63690;SDS011;49837;57.280;27.070;2024-01-15T02:26:07;25.7;;;14.3;;
63690;SDS011;49837;57.280;27.070;2024-01-15T02:27:08;26.7;;;15.0;;
63690;SDS011;49837;57.280;27.070;2024-01-15T02:28:09;39.5;;;19.7;;
63690;SDS011;49837;57.280;27.070;2024-01-15T02:29:08;38.7;;;20.2;;
63690;SDS011;49837;57.280;27.070;2024-01-15T02:30:09;38.9;;;19.3;;
63690;SDS011;49837;57.280;27.070;2024-01-15T02:31:10;34.2;;;17.7;;
63690;SDS011;49837;57.280;27.070;2024-01-15T02:32:11;33.6;;;17.4;;
63690;SDS011;49837;57.280;27.070;2024-01-15T02:33:11;45.7;;;21.6;;
63690;SDS011;49837;57.280;27.070;2024-01-15T02:34:12;33.1;;;17.8;;
63690;SDS011;49837;57.280;27.070;2024-01-15T02:35:12;27.2;;;14.2;;
63690;SDS011;49837;57.280;27.070;2024-01-15T02:36:13;27.1;;;14.5;;
63690;SDS011;49837;57.280;27.070;2024-01-15T02:37:13;27.3;;;13.5;;
63690;SDS011;49837;57.280;27.070;2024-01-15T02:38:13;26.3;;;13.5;;
63690;SDS011;49837;57.280;27.070;2024-01-15T02:39:14;26.9;;;14.8;;
63690;SDS011;49837;57.280;27.070;2024-01-15T02:40:14;26.8;;;14.3;;
63690;SDS011;49837;57.280;27.070;2024-01-15T02:41:14;34.0;;;17.1;;
63690;SDS011;49837;57.280;27.070;2024-01-15T02:42:15;37.8;;;19.0;;
63690;SDS011;49837;57.280;27.070;2024-01-15T02:43:15;32.2;;;17.6;;
63690;SDS011;49837;57.280;27.070;2024-01-15T02:44:16;30.4;;;16.5;;
63690;SDS011;49837;57.280;27.070;2024-01-15T02:45:16;28.8;;;15.5;;
63690;SDS011;49837;57.280;27.070;2024-01-15T02:46:16;25.6;;;14.2;;
63690;SDS011;49837;57.280;27.070;2024-01-15T02:47:17;24.6;;;13.9;;
63690;SDS011;49837;57.280;27.070;2024-01-15T02:48:17;27.0;;;14.4;;
63690;SDS011;49837;57.280;27.070;2024-01-15T02:49:17;25.9;;;14.4;;
63690;SDS011;49837;57.280;27.070;2024-01-15T02:50:18;24.5;;;13.9;;
63690;SDS011;49837;57.280;27.070;2024-01-15T02:51:18;28.9;;;14.8;;
63690;SDS011;49837;57.280;27.070;2024-01-15T02:52:19;27.3;;;14.7;;
63690;SDS011;49837;57.280;27.070;2024-01-15T02:53:19;24.3;;;14.2;;
63690;SDS011;49837;57.280;27.070;2024-01-15T02:54:19;26.5;;;15.4;;
63690;SDS011;49837;57.280;27.070;2024-01-15T02:55:20;28.3;;;15.5;;
63690;SDS011;49837;57.280;27.070;2024-01-15T02:56:20;27.6;;;15.3;;
63690;SDS011;49837;57.280;27.070;2024-01-15T02:57:21;26.9;;;14.3;;
63690;SDS011;49837;57.280;27.070;2024-01-15T02:58:21;26.4;;;14.7;;
63690;SDS011;49837;57.280;27.070;2024-01-15T02:59:21;25.5;;;14.5;;
63690;SDS011;49837;57.280;27.070;2024-01-15T03:00:22;26.1;;;14.4;;
63690;SDS011;49837;57.280;27.070;2024-01-15T03:01:22;25.8;;;13.8;;
63690;SDS011;49837;57.280;27.070;2024-01-15T03:02:22;26.4;;;15.3;;
63690;SDS011;49837;57.280;27.070;2024-01-15T03:03:23;28.6;;;15.0;;
63690;SDS011;49837;57.280;27.070;2024-01-15T03:04:23;29.3;;;15.6;;
63690;SDS011;49837;57.280;27.070;2024-01-15T03:05:24;26.9;;;13.7;;
63690;SDS011;49837;57.280;27.070;2024-01-15T03:06:24;26.6;;;14.6;;
63690;SDS011;49837;57.280;27.070;2024-01-15T03:07:25;26.2;;;14.4;;
63690;SDS011;49837;57.280;27.070;2024-01-15T03:08:25;28.3;;;15.3;;
63690;SDS011;49837;57.280;27.070;2024-01-15T03:09:25;26.5;;;14.9;;
63690;SDS011;49837;57.280;27.070;2024-01-15T03:10:26;25.4;;;14.7;;
63690;SDS011;49837;57.280;27.070;2024-01-15T03:11:26;27.9;;;14.8;;
63690;SDS011;49837;57.280;27.070;2024-01-15T03:12:26;28.0;;;15.0;;
63690;SDS011;49837;57.280;27.070;2024-01-15T03:13:27;23.6;;;14.2;;
63690;SDS011;49837;57.280;27.070;2024-01-15T03:14:27;27.0;;;14.5;;
63690;SDS011;49837;57.280;27.070;2024-01-15T03:15:27;26.6;;;14.6;;
63690;SDS011;49837;57.280;27.070;2024-01-15T03:16:28;26.7;;;14.3;;
63690;SDS011;49837;57.280;27.070;2024-01-15T03:17:28;25.5;;;14.2;;
63690;SDS011;49837;57.280;27.070;2024-01-15T03:18:29;26.5;;;14.9;;
63690;SDS011;49837;57.280;27.070;2024-01-15T03:19:29;26.4;;;14.6;;
63690;SDS011;49837;57.280;27.070;2024-01-15T03:20:30;27.6;;;15.2;;
63690;SDS011;49837;57.280;27.070;2024-01-15T03:21:30;27.2;;;15.3;;
63690;SDS011;49837;57.280;27.070;2024-01-15T03:22:30;29.2;;;15.4;;
63690;SDS011;49837;57.280;27.070;2024-01-15T03:23:31;28.1;;;14.4;;
63690;SDS011;49837;57.280;27.070;2024-01-15T03:24:31;26.2;;;14.6;;
63690;SDS011;49837;57.280;27.070;2024-01-15T03:25:31;27.0;;;14.5;;
63690;SDS011;49837;57.280;27.070;2024-01-15T03:26:32;30.9;;;15.8;;
63690;SDS011;49837;57.280;27.070;2024-01-15T03:27:32;33.0;;;17.9;;
63690;SDS011;49837;57.280;27.070;2024-01-15T03:28:33;32.7;;;17.9;;
63690;SDS011;49837;57.280;27.070;2024-01-15T03:29:33;29.0;;;15.5;;
63690;SDS011;49837;57.280;27.070;2024-01-15T03:30:33;30.4;;;16.0;;
63690;SDS011;49837;57.280;27.070;2024-01-15T03:31:34;27.6;;;15.5;;
63690;SDS011;49837;57.280;27.070;2024-01-15T03:32:34;27.4;;;15.0;;
63690;SDS011;49837;57.280;27.070;2024-01-15T03:33:34;27.9;;;15.8;;
63690;SDS011;49837;57.280;27.070;2024-01-15T03:34:35;26.8;;;15.6;;
63690;SDS011;49837;57.280;27.070;2024-01-15T03:35:35;26.6;;;15.6;;
63690;SDS011;49837;57.280;27.070;2024-01-15T03:36:36;28.4;;;15.7;;
63690;SDS011;49837;57.280;27.070;2024-01-15T03:37:36;27.7;;;15.0;;
63690;SDS011;49837;57.280;27.070;2024-01-15T03:38:39;29.7;;;15.8;;
63690;SDS011;49837;57.280;27.070;2024-01-15T03:39:38;29.3;;;15.5;;
63690;SDS011;49837;57.280;27.070;2024-01-15T03:40:38;28.3;;;15.8;;
63690;SDS011;49837;57.280;27.070;2024-01-15T03:41:39;28.7;;;15.4;;
63690;SDS011;49837;57.280;27.070;2024-01-15T03:42:39;27.3;;;15.2;;
63690;SDS011;49837;57.280;27.070;2024-01-15T03:43:40;28.4;;;15.2;;
63690;SDS011;49837;57.280;27.070;2024-01-15T03:44:40;28.6;;;15.5;;
63690;SDS011;49837;57.280;27.070;2024-01-15T03:45:40;27.2;;;14.9;;
63690;SDS011;49837;57.280;27.070;2024-01-15T03:46:41;27.6;;;14.9;;
63690;SDS011;49837;57.280;27.070;2024-01-15T03:47:41;27.4;;;15.4;;
63690;SDS011;49837;57.280;27.070;2024-01-15T03:48:41;30.2;;;15.6;;
63690;SDS011;49837;57.280;27.070;2024-01-15T03:49:42;27.2;;;15.0;;
63690;SDS011;49837;57.280;27.070;2024-01-15T03:50:42;30.0;;;15.4;;
63690;SDS011;49837;57.280;27.070;2024-01-15T03:51:43;31.3;;;15.9;;
63690;SDS011;49837;57.280;27.070;2024-01-15T03:52:43;26.1;;;15.2;;
63690;SDS011;49837;57.280;27.070;2024-01-15T03:53:43;32.0;;;16.5;;
63690;SDS011;49837;57.280;27.070;2024-01-15T03:54:44;29.4;;;15.1;;
63690;SDS011;49837;57.280;27.070;2024-01-15T03:55:44;30.7;;;16.0;;
63690;SDS011;49837;57.280;27.070;2024-01-15T03:56:45;28.0;;;15.2;;
63690;SDS011;49837;57.280;27.070;2024-01-15T03:57:46;28.4;;;15.8;;
63690;SDS011;49837;57.280;27.070;2024-01-15T03:58:46;27.5;;;15.3;;
63690;SDS011;49837;57.280;27.070;2024-01-15T03:59:46;29.2;;;15.6;;
63690;SDS011;49837;57.280;27.070;2024-01-15T04:00:47;28.8;;;15.4;;
63690;SDS011;49837;57.280;27.070;2024-01-15T04:01:50;29.9;;;16.0;;
63690;SDS011;49837;57.280;27.070;2024-01-15T04:02:48;27.3;;;15.3;;
63690;SDS011;49837;57.280;27.070;2024-01-15T04:03:48;29.3;;;15.0;;
63690;SDS011;49837;57.280;27.070;2024-01-15T04:04:48;28.8;;;16.0;;
63690;SDS011;49837;57.280;27.070;2024-01-15T04:05:49;26.9;;;14.9;;
63690;SDS011;49837;57.280;27.070;2024-01-15T04:06:49;27.5;;;15.3;;
63690;SDS011;49837;57.280;27.070;2024-01-15T04:07:50;28.2;;;15.2;;
63690;SDS011;49837;57.280;27.070;2024-01-15T04:08:50;27.3;;;14.8;;
63690;SDS011;49837;57.280;27.070;2024-01-15T04:09:50;30.1;;;16.3;;
63690;SDS011;49837;57.280;27.070;2024-01-15T04:10:51;28.6;;;15.2;;
63690;SDS011;49837;57.280;27.070;2024-01-15T04:11:51;29.1;;;15.4;;
63690;SDS011;49837;57.280;27.070;2024-01-15T04:12:52;27.9;;;14.9;;
63690;SDS011;49837;57.280;27.070;2024-01-15T04:13:52;27.3;;;14.6;;
63690;SDS011;49837;57.280;27.070;2024-01-15T04:14:52;24.4;;;14.4;;
63690;SDS011;49837;57.280;27.070;2024-01-15T04:15:53;26.6;;;14.3;;
63690;SDS011;49837;57.280;27.070;2024-01-15T04:16:53;26.6;;;14.2;;
63690;SDS011;49837;57.280;27.070;2024-01-15T04:17:54;26.4;;;14.7;;
63690;SDS011;49837;57.280;27.070;2024-01-15T04:18:54;25.9;;;14.7;;
63690;SDS011;49837;57.280;27.070;2024-01-15T04:19:54;27.6;;;15.0;;
63690;SDS011;49837;57.280;27.070;2024-01-15T04:20:55;27.4;;;14.6;;
63690;SDS011;49837;57.280;27.070;2024-01-15T04:21:55;26.1;;;15.1;;
63690;SDS011;49837;57.280;27.070;2024-01-15T04:22:56;28.3;;;15.4;;
63690;SDS011;49837;57.280;27.070;2024-01-15T04:23:56;28.9;;;15.4;;
63690;SDS011;49837;57.280;27.070;2024-01-15T04:24:56;26.8;;;14.7;;
63690;SDS011;49837;57.280;27.070;2024-01-15T04:25:57;25.4;;;14.7;;
63690;SDS011;49837;57.280;27.070;2024-01-15T04:26:57;27.1;;;15.2;;
63690;SDS011;49837;57.280;27.070;2024-01-15T04:27:58;26.1;;;15.2;;
63690;SDS011;49837;57.280;27.070;2024-01-15T04:28:58;26.1;;;14.3;;
63690;SDS011;49837;57.280;27.070;2024-01-15T04:29:58;28.2;;;14.8;;
63690;SDS011;49837;57.280;27.070;2024-01-15T04:30:59;26.6;;;14.8;;
63690;SDS011;49837;57.280;27.070;2024-01-15T04:31:59;27.2;;;14.8;;
63690;SDS011;49837;57.280;27.070;2024-01-15T04:33:00;29.3;;;14.8;;
63690;SDS011;49837;57.280;27.070;2024-01-15T04:34:00;26.0;;;13.8;;
63690;SDS011;49837;57.280;27.070;2024-01-15T04:35:00;25.0;;;14.4;;
63690;SDS011;49837;57.280;27.070;2024-01-15T04:36:01;26.7;;;14.7;;
63690;SDS011;49837;57.280;27.070;2024-01-15T04:37:01;29.4;;;15.8;;
63690;SDS011;49837;57.280;27.070;2024-01-15T04:38:02;27.0;;;14.4;;
63690;SDS011;49837;57.280;27.070;2024-01-15T04:39:02;25.9;;;15.2;;
63690;SDS011;49837;57.280;27.070;2024-01-15T04:40:02;31.3;;;15.9;;
63690;SDS011;49837;57.280;27.070;2024-01-15T04:41:03;27.5;;;14.8;;
63690;SDS011;49837;57.280;27.070;2024-01-15T04:42:03;28.7;;;15.5;;
63690;SDS011;49837;57.280;27.070;2024-01-15T04:43:03;28.7;;;15.9;;
63690;SDS011;49837;57.280;27.070;2024-01-15T04:44:04;25.9;;;15.1;;
63690;SDS011;49837;57.280;27.070;2024-01-15T04:45:04;27.0;;;14.2;;
63690;SDS011;49837;57.280;27.070;2024-01-15T04:46:07;27.3;;;15.0;;
63690;SDS011;49837;57.280;27.070;2024-01-15T04:47:05;31.6;;;16.4;;
63690;SDS011;49837;57.280;27.070;2024-01-15T04:48:05;24.5;;;14.6;;
63690;SDS011;49837;57.280;27.070;2024-01-15T04:49:06;27.4;;;15.2;;
63690;SDS011;49837;57.280;27.070;2024-01-15T04:50:06;27.9;;;15.3;;
63690;SDS011;49837;57.280;27.070;2024-01-15T04:51:08;25.1;;;14.9;;
63690;SDS011;49837;57.280;27.070;2024-01-15T04:52:07;27.0;;;15.1;;
63690;SDS011;49837;57.280;27.070;2024-01-15T04:53:07;28.5;;;14.6;;
63690;SDS011;49837;57.280;27.070;2024-01-15T04:54:09;28.5;;;16.8;;
63690;SDS011;49837;57.280;27.070;2024-01-15T04:55:09;31.2;;;16.6;;
63690;SDS011;49837;57.280;27.070;2024-01-15T04:56:10;28.4;;;15.8;;
63690;SDS011;49837;57.280;27.070;2024-01-15T04:57:10;29.0;;;16.5;;
63690;SDS011;49837;57.280;27.070;2024-01-15T04:58:10;30.3;;;16.3;;
63690;SDS011;49837;57.280;27.070;2024-01-15T04:59:11;27.2;;;16.2;;
63690;SDS011;49837;57.280;27.070;2024-01-15T05:00:12;27.1;;;15.7;;
63690;SDS011;49837;57.280;27.070;2024-01-15T05:01:12;33.5;;;17.1;;
63690;SDS011;49837;57.280;27.070;2024-01-15T05:02:13;29.3;;;16.3;;
63690;SDS011;49837;57.280;27.070;2024-01-15T05:03:13;26.6;;;16.4;;
63690;SDS011;49837;57.280;27.070;2024-01-15T05:04:14;32.5;;;17.4;;
63690;SDS011;49837;57.280;27.070;2024-01-15T05:05:14;28.4;;;15.3;;
63690;SDS011;49837;57.280;27.070;2024-01-15T05:06:14;27.5;;;15.3;;
63690;SDS011;49837;57.280;27.070;2024-01-15T05:07:15;24.6;;;14.2;;
63690;SDS011;49837;57.280;27.070;2024-01-15T05:08:15;25.7;;;14.5;;
63690;SDS011;49837;57.280;27.070;2024-01-15T05:09:16;23.8;;;12.7;;
63690;SDS011;49837;57.280;27.070;2024-01-15T05:10:16;24.8;;;13.8;;
63690;SDS011;49837;57.280;27.070;2024-01-15T05:11:16;22.2;;;13.3;;
63690;SDS011;49837;57.280;27.070;2024-01-15T05:12:17;24.3;;;14.0;;
63690;SDS011;49837;57.280;27.070;2024-01-15T05:13:17;24.9;;;13.9;;
63690;SDS011;49837;57.280;27.070;2024-01-15T05:14:17;23.4;;;13.9;;
63690;SDS011;49837;57.280;27.070;2024-01-15T05:15:18;25.0;;;13.7;;
63690;SDS011;49837;57.280;27.070;2024-01-15T05:16:18;23.1;;;13.8;;
63690;SDS011;49837;57.280;27.070;2024-01-15T05:17:19;24.2;;;13.9;;
63690;SDS011;49837;57.280;27.070;2024-01-15T05:18:19;23.4;;;13.3;;
63690;SDS011;49837;57.280;27.070;2024-01-15T05:19:19;25.7;;;13.9;;
63690;SDS011;49837;57.280;27.070;2024-01-15T05:20:20;23.8;;;13.8;;
63690;SDS011;49837;57.280;27.070;2024-01-15T05:21:20;21.8;;;12.8;;
63690;SDS011;49837;57.280;27.070;2024-01-15T05:22:21;26.2;;;13.9;;
63690;SDS011;49837;57.280;27.070;2024-01-15T05:23:21;24.3;;;13.4;;
63690;SDS011;49837;57.280;27.070;2024-01-15T05:24:22;23.8;;;14.6;;
63690;SDS011;49837;57.280;27.070;2024-01-15T05:25:23;27.1;;;15.3;;
63690;SDS011;49837;57.280;27.070;2024-01-15T05:26:23;26.6;;;15.0;;
63690;SDS011;49837;57.280;27.070;2024-01-15T05:27:23;26.0;;;14.6;;
63690;SDS011;49837;57.280;27.070;2024-01-15T05:28:24;27.8;;;16.3;;
63690;SDS011;49837;57.280;27.070;2024-01-15T05:29:24;35.7;;;18.8;;
63690;SDS011;49837;57.280;27.070;2024-01-15T05:30:25;45.1;;;23.3;;
63690;SDS011;49837;57.280;27.070;2024-01-15T05:31:26;35.0;;;19.8;;
63690;SDS011;49837;57.280;27.070;2024-01-15T05:32:26;31.8;;;17.9;;
63690;SDS011;49837;57.280;27.070;2024-01-15T05:33:26;28.3;;;15.5;;
63690;SDS011;49837;57.280;27.070;2024-01-15T05:34:27;26.8;;;14.8;;
63690;SDS011;49837;57.280;27.070;2024-01-15T05:35:27;24.4;;;14.0;;
63690;SDS011;49837;57.280;27.070;2024-01-15T05:36:28;23.5;;;14.3;;
63690;SDS011;49837;57.280;27.070;2024-01-15T05:37:28;26.7;;;14.1;;
63690;SDS011;49837;57.280;27.070;2024-01-15T05:38:29;23.9;;;13.2;;
63690;SDS011;49837;57.280;27.070;2024-01-15T05:39:29;25.4;;;13.5;;
63690;SDS011;49837;57.280;27.070;2024-01-15T05:40:29;26.5;;;14.8;;
63690;SDS011;49837;57.280;27.070;2024-01-15T05:41:30;25.2;;;13.7;;
63690;SDS011;49837;57.280;27.070;2024-01-15T05:42:30;22.2;;;13.2;;
63690;SDS011;49837;57.280;27.070;2024-01-15T05:43:30;21.4;;;12.7;;
63690;SDS011;49837;57.280;27.070;2024-01-15T05:44:31;25.1;;;13.4;;
63690;SDS011;49837;57.280;27.070;2024-01-15T05:45:31;22.5;;;13.0;;
63690;SDS011;49837;57.280;27.070;2024-01-15T05:46:32;22.3;;;12.3;;
63690;SDS011;49837;57.280;27.070;2024-01-15T05:47:32;22.0;;;12.5;;
63690;SDS011;49837;57.280;27.070;2024-01-15T05:48:32;21.3;;;12.2;;
63690;SDS011;49837;57.280;27.070;2024-01-15T05:49:33;20.7;;;12.6;;
63690;SDS011;49837;57.280;27.070;2024-01-15T05:50:33;24.6;;;13.5;;
63690;SDS011;49837;57.280;27.070;2024-01-15T05:51:34;26.2;;;13.4;;
63690;SDS011;49837;57.280;27.070;2024-01-15T05:52:34;21.9;;;12.8;;
63690;SDS011;49837;57.280;27.070;2024-01-15T05:53:34;23.6;;;13.4;;
63690;SDS011;49837;57.280;27.070;2024-01-15T05:54:35;20.7;;;12.8;;
63690;SDS011;49837;57.280;27.070;2024-01-15T05:55:36;23.0;;;13.5;;
63690;SDS011;49837;57.280;27.070;2024-01-15T05:56:36;24.9;;;14.2;;
63690;SDS011;49837;57.280;27.070;2024-01-15T05:57:36;33.4;;;17.1;;